Big Water, Utah
Current Conditions -  °F | °C
As of 4:53 PM on Friday 24 Oct 2014 (Local Time) from KPGA Reporting Station
Clear Clear  
Wind Chill: 77°   Ceiling: Unl
Heat Index: 77°   Visibility: 10mi
Dew Point: 33°   Wind: 5mph
Humidity: 20%   Direction: 70°ENE
Pressure: 30.17"   Gusts: NA
Location:  37.2711°N, 111.769°W
Report Text: KPGA 242253Z AUTO 07004KT 10SM CLR 25/01 A3017 RMK AO2 SLP167 T02500006
Loading
Personal Weather Stations






























Interactive Weather Map
Tropical Storm Tracking
New forecast layout! Learn more

10-Day Weather Forecast

Advertisements
Track Severe Weather on mobile